createdAt,value
2017-07-04T00:00:02.321Z,16.6
2017-07-04T00:05:02.860Z,16.2
2017-07-04T00:10:03.228Z,16.2
2017-07-04T00:15:02.589Z,16.2
2017-07-04T00:20:02.916Z,15.8
2017-07-04T00:25:02.279Z,16.0
2017-07-04T00:30:02.540Z,16.0
2017-07-04T00:35:02.881Z,15.8
2017-07-04T00:40:03.222Z,15.8
2017-07-04T00:45:02.530Z,15.8
2017-07-04T00:50:02.825Z,16.0
2017-07-04T00:55:02.277Z,16.0
2017-07-04T01:00:02.814Z,16.0
2017-07-04T01:05:03.184Z,16.2
2017-07-04T01:10:02.499Z,16.0
2017-07-04T01:15:02.888Z,16.0
2017-07-04T01:20:03.196Z,16.2
2017-07-04T01:25:02.541Z,16.2
2017-07-04T01:30:02.825Z,16.2
2017-07-04T01:35:03.090Z,16.2
2017-07-04T01:40:02.438Z,16.2
2017-07-04T01:45:02.818Z,16.3
2017-07-04T01:50:02.265Z,16.3
2017-07-04T01:55:02.685Z,16.3
2017-07-04T02:00:03.014Z,16.3
2017-07-04T02:05:02.466Z,16.3
2017-07-04T02:10:02.841Z,16.6
2017-07-04T02:15:03.140Z,16.6
2017-07-04T02:20:02.458Z,16.3
2017-07-04T02:25:02.877Z,16.3
2017-07-04T02:30:03.198Z,16.3
2017-07-04T02:35:02.629Z,16.3
2017-07-04T02:40:02.990Z,16.3
2017-07-04T02:45:02.445Z,16.2
2017-07-04T02:50:02.881Z,16.3
2017-07-04T02:55:03.176Z,16.2
2017-07-04T03:00:02.534Z,16.2
2017-07-04T03:05:02.855Z,16.2
2017-07-04T03:10:02.291Z,16.2
2017-07-04T03:15:02.737Z,16.2
2017-07-04T03:20:03.193Z,16.2
2017-07-04T03:25:02.470Z,16.2
2017-07-04T03:30:02.949Z,16.0
2017-07-04T03:35:02.392Z,16.0
2017-07-04T03:40:02.807Z,16.0
2017-07-04T03:50:02.879Z,16.2
2017-07-04T03:55:02.414Z,16.2
2017-07-04T04:00:02.713Z,16.2
2017-07-04T04:05:03.063Z,16.2
2017-07-04T04:10:02.535Z,16.2
2017-07-04T04:15:02.883Z,16.2
2017-07-04T04:20:03.195Z,16.2
2017-07-04T04:25:02.689Z,16.2
2017-07-04T04:30:02.654Z,16.2
2017-07-04T04:35:03.052Z,16.2
2017-07-04T04:40:02.480Z,16.2
2017-07-04T04:45:02.728Z,16.2
2017-07-04T04:50:03.097Z,16.3
2017-07-04T04:55:02.453Z,16.3
2017-07-04T05:00:02.901Z,16.6
2017-07-04T05:05:03.153Z,16.7
2017-07-04T05:10:02.734Z,16.7
2017-07-04T05:15:03.081Z,17.0
2017-07-04T05:20:02.430Z,16.7
2017-07-04T05:25:02.832Z,16.7
2017-07-04T05:30:03.111Z,17.2
2017-07-04T05:35:02.356Z,17.1
2017-07-04T05:40:02.815Z,17.3
2017-07-04T05:45:03.065Z,17.5
2017-07-04T05:50:02.543Z,17.7
2017-07-04T05:55:02.958Z,17.7
2017-07-04T06:00:02.393Z,17.8
2017-07-04T06:05:02.688Z,17.8
2017-07-04T06:10:03.163Z,17.7
2017-07-04T06:15:02.682Z,18.1
2017-07-04T06:20:03.034Z,18.2
2017-07-04T06:25:02.434Z,18.2
2017-07-04T06:30:02.969Z,18.2
2017-07-04T06:35:02.271Z,18.2
2017-07-04T06:40:02.772Z,18.7
2017-07-04T06:45:03.242Z,18.7
2017-07-04T06:50:02.598Z,18.6
2017-07-04T06:55:03.042Z,18.6
2017-07-04T07:00:02.305Z,18.5
2017-07-04T07:05:02.723Z,18.1
2017-07-04T07:10:03.216Z,17.7
2017-07-04T07:15:02.668Z,17.7
2017-07-04T07:20:02.984Z,18.2
2017-07-04T07:25:02.388Z,18.6
2017-07-04T07:30:02.813Z,18.2
2017-07-04T07:35:03.086Z,18.8
2017-07-04T07:40:02.535Z,19.1
2017-07-04T07:45:02.846Z,20.1
2017-07-04T07:50:02.326Z,20.2
2017-07-04T07:55:02.831Z,19.5
2017-07-04T08:05:02.962Z,19.5
2017-07-04T08:10:02.338Z,19.2
2017-07-04T08:15:02.642Z,19.1
2017-07-04T08:20:03.248Z,20.6
2017-07-04T08:25:02.274Z,20.1
2017-07-04T08:30:02.948Z,20.2
2017-07-04T08:35:02.336Z,20.0
2017-07-04T08:40:02.616Z,20.0
2017-07-04T08:45:02.630Z,20.7
2017-07-04T08:50:02.787Z,20.7
2017-07-04T08:55:02.542Z,21.3
2017-07-04T09:00:02.619Z,21.2
2017-07-04T09:05:03.243Z,22.0
2017-07-04T09:10:02.737Z,22.5
2017-07-04T09:15:02.363Z,21.3
2017-07-04T09:20:02.610Z,21.8
2017-07-04T09:25:02.558Z,21.2
2017-07-04T09:30:02.375Z,22.6
2017-07-04T09:35:02.675Z,23.1
2017-07-04T09:40:03.212Z,22.2
2017-07-04T09:45:02.354Z,22.0
2017-07-04T09:50:02.483Z,21.8
2017-07-04T09:55:03.355Z,20.8
2017-07-04T10:00:02.728Z,20.3
2017-07-04T10:05:02.880Z,21.6
2017-07-04T10:10:03.021Z,23.7
2017-07-04T10:15:02.333Z,22.7
2017-07-04T10:20:02.524Z,22.5
2017-07-04T10:25:02.646Z,23.7
2017-07-04T10:30:02.806Z,24.0
2017-07-04T10:35:02.306Z,22.7
2017-07-04T10:40:02.954Z,23.0
2017-07-04T10:45:02.360Z,21.8
2017-07-04T10:50:02.556Z,22.0
2017-07-04T10:55:02.260Z,22.0
2017-07-04T11:00:02.539Z,22.1
2017-07-04T11:05:02.352Z,23.2
2017-07-04T11:10:02.421Z,23.2
2017-07-04T11:15:03.036Z,23.7
2017-07-04T11:20:02.717Z,24.2
2017-07-04T11:25:03.102Z,21.3
2017-07-04T11:30:02.756Z,23.1
2017-07-04T11:35:02.348Z,23.6
2017-07-04T11:40:02.445Z,23.1
2017-07-04T11:45:02.879Z,23.3
2017-07-04T11:50:02.977Z,23.6
2017-07-04T11:55:02.948Z,22.5
2017-07-04T12:00:02.486Z,22.7
2017-07-04T12:05:02.449Z,23.6
2017-07-04T12:10:02.579Z,23.7
2017-07-04T12:15:02.423Z,23.1
2017-07-04T12:20:03.073Z,24.6
2017-07-04T12:25:02.663Z,23.1
2017-07-04T12:30:03.108Z,25.5
2017-07-04T12:35:03.025Z,24.5
2017-07-04T12:40:02.689Z,24.2
2017-07-04T12:45:02.499Z,24.5
2017-07-04T12:50:03.123Z,23.2
2017-07-04T12:55:02.387Z,24.5
2017-07-04T13:00:02.622Z,26.0
2017-07-04T13:05:02.759Z,24.5
2017-07-04T13:10:03.052Z,26.8
2017-07-04T13:15:02.614Z,25.5
2017-07-04T13:20:02.638Z,24.7
2017-07-04T13:25:02.586Z,25.1
2017-07-04T13:30:02.743Z,25.5
2017-07-04T13:35:02.962Z,26.6
2017-07-04T13:40:02.998Z,25.6
2017-07-04T13:45:02.341Z,25.5
2017-07-04T13:50:02.885Z,26.7
2017-07-04T13:55:03.204Z,25.8
2017-07-04T14:00:02.527Z,27.1
2017-07-04T14:05:02.288Z,26.6
2017-07-04T14:10:03.207Z,26.2
2017-07-04T14:15:02.578Z,27.3
2017-07-04T14:20:02.955Z,27.3
2017-07-04T14:25:02.884Z,26.5
2017-07-04T14:30:02.359Z,25.0
2017-07-04T14:35:02.330Z,23.8
2017-07-04T14:40:02.837Z,23.7
2017-07-04T14:45:03.121Z,23.7
2017-07-04T14:50:02.372Z,23.6
2017-07-04T14:55:02.672Z,22.7
2017-07-04T15:00:03.178Z,22.7
2017-07-04T15:05:03.223Z,22.6
2017-07-04T15:10:02.648Z,22.3
2017-07-04T15:15:02.866Z,22.1
2017-07-04T15:20:03.077Z,22.1
2017-07-04T15:25:02.351Z,22.0
2017-07-04T15:30:02.717Z,22.2
2017-07-04T15:35:02.625Z,22.2
2017-07-04T15:40:02.831Z,22.1
2017-07-04T15:45:02.669Z,22.0
2017-07-04T15:50:02.755Z,22.1
2017-07-04T15:55:02.998Z,22.5
2017-07-04T16:00:02.317Z,22.7
2017-07-04T16:05:02.775Z,23.2
2017-07-04T16:10:02.953Z,23.1
2017-07-04T16:15:03.183Z,23.8
2017-07-04T16:20:02.497Z,24.2
2017-07-04T16:25:02.971Z,23.1
2017-07-04T16:30:02.311Z,23.2
2017-07-04T16:35:02.456Z,23.2
2017-07-04T16:40:02.979Z,23.3
2017-07-04T16:45:03.142Z,24.2
2017-07-04T16:50:02.349Z,23.7
2017-07-04T16:55:02.448Z,23.8
2017-07-04T17:00:02.788Z,23.8
2017-07-04T17:05:02.494Z,23.2
2017-07-04T17:10:02.949Z,23.0
2017-07-04T17:15:02.396Z,22.7
2017-07-04T17:20:03.019Z,22.5
2017-07-04T17:25:03.199Z,22.5
2017-07-04T17:30:02.284Z,22.3
2017-07-04T17:35:03.018Z,22.1
2017-07-04T17:40:02.542Z,22.0
2017-07-04T17:45:02.966Z,22.0
2017-07-04T17:50:03.145Z,22.0
2017-07-04T17:55:03.001Z,21.8
2017-07-04T18:00:03.066Z,21.8
2017-07-04T18:05:02.522Z,21.8
2017-07-04T18:10:02.652Z,21.6
2017-07-04T18:15:02.490Z,21.3
2017-07-04T18:20:03.008Z,21.5
2017-07-04T18:25:02.379Z,21.7
2017-07-04T18:30:03.085Z,21.6
2017-07-04T18:35:03.200Z,21.3
2017-07-04T18:40:02.576Z,21.2
2017-07-04T18:45:02.660Z,21.3
2017-07-04T18:50:02.421Z,21.3
2017-07-04T18:55:02.941Z,21.5
2017-07-04T19:00:02.951Z,21.3
2017-07-04T19:05:02.312Z,21.2
2017-07-04T19:10:02.877Z,20.8
2017-07-04T19:15:02.327Z,21.0
2017-07-04T19:20:03.058Z,21.0
2017-07-04T19:25:03.197Z,21.2
2017-07-04T19:30:03.169Z,21.2
2017-07-04T19:35:02.825Z,21.0
2017-07-04T19:40:02.500Z,20.7
2017-07-04T19:45:02.237Z,20.6
2017-07-04T19:50:02.556Z,20.3
2017-07-04T19:55:02.689Z,20.2
2017-07-04T20:00:02.901Z,20.2
2017-07-04T20:05:02.459Z,20.1
2017-07-04T20:10:03.184Z,20.0
2017-07-04T20:15:02.505Z,20.1
2017-07-04T20:20:02.797Z,20.0
2017-07-04T20:25:02.416Z,19.7
2017-07-04T20:30:02.482Z,19.7
2017-07-04T20:35:03.147Z,19.7
2017-07-04T20:40:03.260Z,19.7
2017-07-04T20:45:02.522Z,19.7
2017-07-04T20:50:02.414Z,19.5
2017-07-04T20:55:03.146Z,19.2
2017-07-04T21:00:03.125Z,19.2
2017-07-04T21:05:02.567Z,19.1
2017-07-04T21:10:02.739Z,18.8
2017-07-04T21:15:02.412Z,18.8
2017-07-04T21:20:02.329Z,18.7
2017-07-04T21:25:02.783Z,18.6
2017-07-04T21:30:02.530Z,18.6
2017-07-04T21:35:03.224Z,18.5
2017-07-04T21:40:02.849Z,18.2
2017-07-04T21:45:03.222Z,18.1
2017-07-04T21:50:02.471Z,17.8
2017-07-04T21:55:02.747Z,17.8
2017-07-04T22:00:03.203Z,17.7
2017-07-04T22:05:02.458Z,17.7
2017-07-04T22:10:02.810Z,17.8
2017-07-04T22:15:03.073Z,17.8
2017-07-04T22:20:02.559Z,17.7
2017-07-04T22:25:02.815Z,17.7
2017-07-04T22:30:03.181Z,17.7
2017-07-04T22:35:02.554Z,17.7
2017-07-04T22:40:03.043Z,17.7
2017-07-04T22:45:02.416Z,17.7
2017-07-04T22:50:02.823Z,17.7
2017-07-04T22:55:03.192Z,17.5
2017-07-04T23:00:02.693Z,17.3
2017-07-04T23:05:02.314Z,17.3
2017-07-04T23:10:02.848Z,17.1
2017-07-04T23:15:03.184Z,17.0
2017-07-04T23:20:02.518Z,17.0
2017-07-04T23:25:02.811Z,16.7
2017-07-04T23:30:03.239Z,16.7
2017-07-04T23:35:02.683Z,16.3
2017-07-04T23:40:03.079Z,16.2
2017-07-04T23:45:02.561Z,16.0
2017-07-04T23:50:02.947Z,16.0
2017-07-04T23:55:02.300Z,16.0
